sensor_id;sensor_type;location;lat;lon;timestamp;P1;durP1;ratioP1;P2;durP2;ratioP2
46008;SDS011;39597;51.438;7.006;2022-10-12T00:00:10;4.90;;;2.40;;
46008;SDS011;39597;51.438;7.006;2022-10-12T00:02:36;8.10;;;2.75;;
46008;SDS011;39597;51.438;7.006;2022-10-12T00:05:02;6.70;;;1.98;;
46008;SDS011;39597;51.438;7.006;2022-10-12T00:07:28;9.20;;;2.47;;
46008;SDS011;39597;51.438;7.006;2022-10-12T00:12:20;6.35;;;2.50;;
46008;SDS011;39597;51.438;7.006;2022-10-12T00:14:46;7.72;;;2.30;;
46008;SDS011;39597;51.438;7.006;2022-10-12T00:17:11;5.10;;;1.80;;
46008;SDS011;39597;51.438;7.006;2022-10-12T00:19:37;5.43;;;2.27;;
46008;SDS011;39597;51.438;7.006;2022-10-12T00:22:03;4.95;;;2.05;;
46008;SDS011;39597;51.438;7.006;2022-10-12T00:26:54;7.32;;;2.20;;
46008;SDS011;39597;51.438;7.006;2022-10-12T00:29:22;4.47;;;1.63;;
46008;SDS011;39597;51.438;7.006;2022-10-12T00:31:47;4.38;;;2.20;;
46008;SDS011;39597;51.438;7.006;2022-10-12T00:34:13;5.70;;;1.80;;
46008;SDS011;39597;51.438;7.006;2022-10-12T00:36:38;4.57;;;1.70;;
46008;SDS011;39597;51.438;7.006;2022-10-12T00:39:05;4.15;;;1.67;;
46008;SDS011;39597;51.438;7.006;2022-10-12T00:41:36;4.03;;;1.52;;
46008;SDS011;39597;51.438;7.006;2022-10-12T00:44:29;7.10;;;1.90;;
46008;SDS011;39597;51.438;7.006;2022-10-12T00:47:15;4.40;;;1.40;;
46008;SDS011;39597;51.438;7.006;2022-10-12T00:49:55;8.10;;;2.58;;
46008;SDS011;39597;51.438;7.006;2022-10-12T00:52:29;5.45;;;2.08;;
46008;SDS011;39597;51.438;7.006;2022-10-12T00:54:59;4.03;;;1.63;;
46008;SDS011;39597;51.438;7.006;2022-10-12T00:57:26;6.88;;;2.08;;
46008;SDS011;39597;51.438;7.006;2022-10-12T00:59:59;6.43;;;1.80;;
46008;SDS011;39597;51.438;7.006;2022-10-12T01:02:29;7.28;;;2.47;;
46008;SDS011;39597;51.438;7.006;2022-10-12T01:04:58;5.15;;;1.75;;
46008;SDS011;39597;51.438;7.006;2022-10-12T01:07:24;6.30;;;2.03;;
46008;SDS011;39597;51.438;7.006;2022-10-12T01:09:49;9.57;;;2.53;;
46008;SDS011;39597;51.438;7.006;2022-10-12T01:12:15;4.85;;;1.48;;
46008;SDS011;39597;51.438;7.006;2022-10-12T01:14:41;5.40;;;1.98;;
46008;SDS011;39597;51.438;7.006;2022-10-12T01:22:35;6.38;;;2.28;;
46008;SDS011;39597;51.438;7.006;2022-10-12T01:25:28;7.15;;;1.70;;
46008;SDS011;39597;51.438;7.006;2022-10-12T01:31:19;5.05;;;1.90;;
46008;SDS011;39597;51.438;7.006;2022-10-12T01:39:55;5.97;;;2.08;;
46008;SDS011;39597;51.438;7.006;2022-10-12T01:42:36;5.63;;;1.98;;
46008;SDS011;39597;51.438;7.006;2022-10-12T01:45:11;3.58;;;1.55;;
46008;SDS011;39597;51.438;7.006;2022-10-12T01:47:41;6.55;;;2.53;;
46008;SDS011;39597;51.438;7.006;2022-10-12T01:50:12;5.47;;;1.50;;
46008;SDS011;39597;51.438;7.006;2022-10-12T01:55:48;6.28;;;1.83;;
46008;SDS011;39597;51.438;7.006;2022-10-12T02:01:11;10.68;;;2.10;;
46008;SDS011;39597;51.438;7.006;2022-10-12T02:07:31;4.43;;;1.75;;
46008;SDS011;39597;51.438;7.006;2022-10-12T02:09:58;3.70;;;1.73;;
46008;SDS011;39597;51.438;7.006;2022-10-12T02:12:33;6.85;;;1.70;;
46008;SDS011;39597;51.438;7.006;2022-10-12T02:15:01;6.13;;;1.90;;
46008;SDS011;39597;51.438;7.006;2022-10-12T02:17:31;9.38;;;2.55;;
46008;SDS011;39597;51.438;7.006;2022-10-12T02:19:59;3.88;;;1.63;;
46008;SDS011;39597;51.438;7.006;2022-10-12T02:22:33;5.00;;;1.92;;
46008;SDS011;39597;51.438;7.006;2022-10-12T02:25:01;5.65;;;1.80;;
46008;SDS011;39597;51.438;7.006;2022-10-12T02:27:33;6.15;;;2.03;;
46008;SDS011;39597;51.438;7.006;2022-10-12T02:30:06;8.45;;;1.90;;
46008;SDS011;39597;51.438;7.006;2022-10-12T02:35:44;6.60;;;2.25;;
46008;SDS011;39597;51.438;7.006;2022-10-12T02:38:31;7.35;;;1.70;;
46008;SDS011;39597;51.438;7.006;2022-10-12T02:41:13;5.50;;;2.30;;
46008;SDS011;39597;51.438;7.006;2022-10-12T02:43:46;6.97;;;1.73;;
46008;SDS011;39597;51.438;7.006;2022-10-12T02:46:14;6.03;;;2.17;;
46008;SDS011;39597;51.438;7.006;2022-10-12T02:48:46;9.30;;;3.40;;
46008;SDS011;39597;51.438;7.006;2022-10-12T02:51:22;6.90;;;2.13;;
46008;SDS011;39597;51.438;7.006;2022-10-12T02:53:55;7.95;;;2.13;;
46008;SDS011;39597;51.438;7.006;2022-10-12T02:56:21;6.45;;;2.03;;
46008;SDS011;39597;51.438;7.006;2022-10-12T02:58:50;4.38;;;1.85;;
46008;SDS011;39597;51.438;7.006;2022-10-12T03:01:21;6.07;;;2.13;;
46008;SDS011;39597;51.438;7.006;2022-10-12T03:03:46;4.78;;;2.10;;
46008;SDS011;39597;51.438;7.006;2022-10-12T03:06:15;3.90;;;2.00;;
46008;SDS011;39597;51.438;7.006;2022-10-12T03:08:44;5.18;;;1.70;;
46008;SDS011;39597;51.438;7.006;2022-10-12T03:11:21;6.63;;;1.92;;
46008;SDS011;39597;51.438;7.006;2022-10-12T03:13:56;5.15;;;1.80;;
46008;SDS011;39597;51.438;7.006;2022-10-12T03:16:25;7.95;;;2.10;;
46008;SDS011;39597;51.438;7.006;2022-10-12T03:18:51;6.50;;;2.35;;
46008;SDS011;39597;51.438;7.006;2022-10-12T03:21:17;7.95;;;2.78;;
46008;SDS011;39597;51.438;7.006;2022-10-12T03:23:48;5.13;;;2.25;;
46008;SDS011;39597;51.438;7.006;2022-10-12T03:26:16;7.15;;;1.95;;
46008;SDS011;39597;51.438;7.006;2022-10-12T03:28:42;7.00;;;1.90;;
46008;SDS011;39597;51.438;7.006;2022-10-12T03:31:07;6.00;;;1.67;;
46008;SDS011;39597;51.438;7.006;2022-10-12T03:33:35;8.35;;;2.72;;
46008;SDS011;39597;51.438;7.006;2022-10-12T03:36:01;4.63;;;1.60;;
46008;SDS011;39597;51.438;7.006;2022-10-12T03:38:26;6.05;;;2.00;;
46008;SDS011;39597;51.438;7.006;2022-10-12T03:40:53;4.65;;;2.08;;
46008;SDS011;39597;51.438;7.006;2022-10-12T03:43:22;5.93;;;2.22;;
46008;SDS011;39597;51.438;7.006;2022-10-12T03:46:03;6.13;;;2.53;;
46008;SDS011;39597;51.438;7.006;2022-10-12T03:48:29;8.75;;;1.70;;
46008;SDS011;39597;51.438;7.006;2022-10-12T03:50:55;8.10;;;2.80;;
46008;SDS011;39597;51.438;7.006;2022-10-12T03:53:21;6.83;;;1.90;;
46008;SDS011;39597;51.438;7.006;2022-10-12T03:55:46;3.88;;;1.80;;
46008;SDS011;39597;51.438;7.006;2022-10-12T03:58:15;4.70;;;1.83;;
46008;SDS011;39597;51.438;7.006;2022-10-12T04:00:42;5.25;;;2.22;;
46008;SDS011;39597;51.438;7.006;2022-10-12T04:03:10;7.45;;;3.10;;
46008;SDS011;39597;51.438;7.006;2022-10-12T04:05:36;5.57;;;2.00;;
46008;SDS011;39597;51.438;7.006;2022-10-12T04:08:04;4.60;;;2.25;;
46008;SDS011;39597;51.438;7.006;2022-10-12T04:10:33;5.32;;;1.70;;
46008;SDS011;39597;51.438;7.006;2022-10-12T04:13:19;5.53;;;1.80;;
46008;SDS011;39597;51.438;7.006;2022-10-12T04:15:44;7.60;;;2.25;;
46008;SDS011;39597;51.438;7.006;2022-10-12T04:18:10;6.60;;;2.05;;
46008;SDS011;39597;51.438;7.006;2022-10-12T04:20:42;7.00;;;2.58;;
46008;SDS011;39597;51.438;7.006;2022-10-12T04:23:11;7.95;;;2.60;;
46008;SDS011;39597;51.438;7.006;2022-10-12T04:25:36;9.00;;;3.00;;
46008;SDS011;39597;51.438;7.006;2022-10-12T04:28:02;10.80;;;2.77;;
46008;SDS011;39597;51.438;7.006;2022-10-12T04:30:30;7.10;;;2.33;;
46008;SDS011;39597;51.438;7.006;2022-10-12T04:33:06;6.10;;;1.83;;
46008;SDS011;39597;51.438;7.006;2022-10-12T04:35:31;10.18;;;3.05;;
46008;SDS011;39597;51.438;7.006;2022-10-12T04:37:57;8.00;;;2.17;;
46008;SDS011;39597;51.438;7.006;2022-10-12T04:40:22;7.93;;;2.80;;
46008;SDS011;39597;51.438;7.006;2022-10-12T04:42:48;5.35;;;2.42;;
46008;SDS011;39597;51.438;7.006;2022-10-12T04:45:14;6.55;;;2.20;;
46008;SDS011;39597;51.438;7.006;2022-10-12T04:47:39;7.43;;;2.30;;
46008;SDS011;39597;51.438;7.006;2022-10-12T04:50:05;7.40;;;1.90;;
46008;SDS011;39597;51.438;7.006;2022-10-12T04:52:30;7.20;;;2.25;;
46008;SDS011;39597;51.438;7.006;2022-10-12T04:54:56;4.97;;;1.77;;
46008;SDS011;39597;51.438;7.006;2022-10-12T04:57:22;5.10;;;1.90;;
46008;SDS011;39597;51.438;7.006;2022-10-12T04:59:48;10.20;;;2.75;;
46008;SDS011;39597;51.438;7.006;2022-10-12T05:02:14;6.82;;;2.33;;
46008;SDS011;39597;51.438;7.006;2022-10-12T05:04:39;7.28;;;2.42;;
46008;SDS011;39597;51.438;7.006;2022-10-12T05:07:09;7.65;;;2.78;;
46008;SDS011;39597;51.438;7.006;2022-10-12T05:09:34;5.05;;;2.30;;
46008;SDS011;39597;51.438;7.006;2022-10-12T05:12:00;4.30;;;2.00;;
46008;SDS011;39597;51.438;7.006;2022-10-12T05:14:25;5.93;;;2.23;;
46008;SDS011;39597;51.438;7.006;2022-10-12T05:16:51;11.38;;;2.35;;
46008;SDS011;39597;51.438;7.006;2022-10-12T05:19:19;7.63;;;2.25;;
46008;SDS011;39597;51.438;7.006;2022-10-12T05:21:45;8.87;;;3.60;;
46008;SDS011;39597;51.438;7.006;2022-10-12T05:24:10;10.85;;;3.15;;
46008;SDS011;39597;51.438;7.006;2022-10-12T05:26:36;9.52;;;3.17;;
46008;SDS011;39597;51.438;7.006;2022-10-12T05:29:01;10.75;;;3.45;;
46008;SDS011;39597;51.438;7.006;2022-10-12T05:31:27;6.07;;;2.05;;
46008;SDS011;39597;51.438;7.006;2022-10-12T05:33:52;12.03;;;4.00;;
46008;SDS011;39597;51.438;7.006;2022-10-12T05:36:18;21.90;;;7.10;;
46008;SDS011;39597;51.438;7.006;2022-10-12T05:38:43;11.40;;;5.00;;
46008;SDS011;39597;51.438;7.006;2022-10-12T05:41:08;8.67;;;4.00;;
46008;SDS011;39597;51.438;7.006;2022-10-12T05:43:34;10.10;;;3.20;;
46008;SDS011;39597;51.438;7.006;2022-10-12T05:45:59;11.47;;;3.60;;
46008;SDS011;39597;51.438;7.006;2022-10-12T05:48:28;10.98;;;3.70;;
46008;SDS011;39597;51.438;7.006;2022-10-12T05:50:53;19.67;;;4.07;;
46008;SDS011;39597;51.438;7.006;2022-10-12T05:53:19;19.40;;;4.25;;
46008;SDS011;39597;51.438;7.006;2022-10-12T05:55:52;19.38;;;4.90;;
46008;SDS011;39597;51.438;7.006;2022-10-12T05:58:22;15.27;;;4.70;;
46008;SDS011;39597;51.438;7.006;2022-10-12T06:00:50;17.60;;;4.47;;
46008;SDS011;39597;51.438;7.006;2022-10-12T06:03:18;9.48;;;2.95;;
46008;SDS011;39597;51.438;7.006;2022-10-12T06:05:44;5.82;;;2.47;;
46008;SDS011;39597;51.438;7.006;2022-10-12T06:08:10;5.43;;;2.13;;
46008;SDS011;39597;51.438;7.006;2022-10-12T06:10:36;7.30;;;2.25;;
46008;SDS011;39597;51.438;7.006;2022-10-12T06:13:08;9.85;;;4.03;;
46008;SDS011;39597;51.438;7.006;2022-10-12T06:15:34;7.07;;;2.87;;
46008;SDS011;39597;51.438;7.006;2022-10-12T06:18:00;9.85;;;3.10;;
46008;SDS011;39597;51.438;7.006;2022-10-12T06:20:25;8.13;;;2.93;;
46008;SDS011;39597;51.438;7.006;2022-10-12T06:22:51;9.02;;;3.00;;
46008;SDS011;39597;51.438;7.006;2022-10-12T06:25:16;7.23;;;3.60;;
46008;SDS011;39597;51.438;7.006;2022-10-12T06:27:43;11.50;;;5.17;;
46008;SDS011;39597;51.438;7.006;2022-10-12T06:30:11;10.63;;;4.18;;
46008;SDS011;39597;51.438;7.006;2022-10-12T06:32:37;11.18;;;4.32;;
46008;SDS011;39597;51.438;7.006;2022-10-12T06:35:03;8.40;;;4.45;;
46008;SDS011;39597;51.438;7.006;2022-10-12T06:37:29;10.55;;;4.15;;
46008;SDS011;39597;51.438;7.006;2022-10-12T06:39:54;12.65;;;4.07;;
46008;SDS011;39597;51.438;7.006;2022-10-12T06:42:20;6.65;;;3.53;;
46008;SDS011;39597;51.438;7.006;2022-10-12T06:44:48;8.48;;;3.70;;
46008;SDS011;39597;51.438;7.006;2022-10-12T06:47:14;8.30;;;3.17;;
46008;SDS011;39597;51.438;7.006;2022-10-12T06:49:39;7.85;;;3.33;;
46008;SDS011;39597;51.438;7.006;2022-10-12T06:52:05;8.35;;;3.28;;
46008;SDS011;39597;51.438;7.006;2022-10-12T06:54:30;9.63;;;2.90;;
46008;SDS011;39597;51.438;7.006;2022-10-12T06:56:55;6.03;;;2.73;;
46008;SDS011;39597;51.438;7.006;2022-10-12T06:59:21;8.70;;;3.23;;
46008;SDS011;39597;51.438;7.006;2022-10-12T07:01:47;6.95;;;2.78;;
46008;SDS011;39597;51.438;7.006;2022-10-12T07:04:13;13.80;;;3.40;;
46008;SDS011;39597;51.438;7.006;2022-10-12T07:06:39;9.60;;;3.55;;
46008;SDS011;39597;51.438;7.006;2022-10-12T07:09:04;10.73;;;2.80;;
46008;SDS011;39597;51.438;7.006;2022-10-12T07:11:30;7.28;;;3.00;;
46008;SDS011;39597;51.438;7.006;2022-10-12T07:13:56;6.75;;;2.60;;
46008;SDS011;39597;51.438;7.006;2022-10-12T07:16:22;10.10;;;3.45;;
46008;SDS011;39597;51.438;7.006;2022-10-12T07:18:48;9.85;;;2.78;;
46008;SDS011;39597;51.438;7.006;2022-10-12T07:21:14;6.13;;;2.50;;
46008;SDS011;39597;51.438;7.006;2022-10-12T07:23:40;6.30;;;2.28;;
46008;SDS011;39597;51.438;7.006;2022-10-12T07:26:05;7.53;;;2.72;;
46008;SDS011;39597;51.438;7.006;2022-10-12T07:28:32;7.15;;;2.85;;
46008;SDS011;39597;51.438;7.006;2022-10-12T07:30:59;5.93;;;2.17;;
46008;SDS011;39597;51.438;7.006;2022-10-12T07:33:34;7.13;;;2.35;;
46008;SDS011;39597;51.438;7.006;2022-10-12T07:38:26;8.50;;;3.50;;
46008;SDS011;39597;51.438;7.006;2022-10-12T07:40:52;15.30;;;3.40;;
46008;SDS011;39597;51.438;7.006;2022-10-12T07:43:18;10.55;;;3.15;;
46008;SDS011;39597;51.438;7.006;2022-10-12T07:45:43;8.87;;;3.67;;
46008;SDS011;39597;51.438;7.006;2022-10-12T07:48:12;6.40;;;2.00;;
46008;SDS011;39597;51.438;7.006;2022-10-12T07:50:37;9.70;;;2.47;;
46008;SDS011;39597;51.438;7.006;2022-10-12T07:53:03;11.50;;;3.05;;
46008;SDS011;39597;51.438;7.006;2022-10-12T07:55:29;4.32;;;1.50;;
46008;SDS011;39597;51.438;7.006;2022-10-12T07:57:58;7.63;;;1.95;;
46008;SDS011;39597;51.438;7.006;2022-10-12T08:00:24;5.25;;;1.35;;
46008;SDS011;39597;51.438;7.006;2022-10-12T08:02:50;4.22;;;1.40;;
46008;SDS011;39597;51.438;7.006;2022-10-12T08:05:16;6.30;;;2.20;;
46008;SDS011;39597;51.438;7.006;2022-10-12T08:07:45;5.38;;;2.03;;
46008;SDS011;39597;51.438;7.006;2022-10-12T08:10:13;5.65;;;2.10;;
46008;SDS011;39597;51.438;7.006;2022-10-12T08:12:39;9.13;;;2.63;;
46008;SDS011;39597;51.438;7.006;2022-10-12T08:15:06;5.03;;;1.70;;
46008;SDS011;39597;51.438;7.006;2022-10-12T08:17:32;4.40;;;1.40;;
46008;SDS011;39597;51.438;7.006;2022-10-12T08:19:57;5.18;;;1.60;;
46008;SDS011;39597;51.438;7.006;2022-10-12T08:22:23;8.15;;;2.35;;
46008;SDS011;39597;51.438;7.006;2022-10-12T08:24:48;7.63;;;1.85;;
46008;SDS011;39597;51.438;7.006;2022-10-12T08:27:14;5.53;;;1.63;;
46008;SDS011;39597;51.438;7.006;2022-10-12T08:29:40;5.60;;;1.83;;
46008;SDS011;39597;51.438;7.006;2022-10-12T08:32:05;5.37;;;1.50;;
46008;SDS011;39597;51.438;7.006;2022-10-12T08:34:31;3.95;;;1.70;;
46008;SDS011;39597;51.438;7.006;2022-10-12T08:36:57;6.07;;;1.67;;
46008;SDS011;39597;51.438;7.006;2022-10-12T08:39:23;3.40;;;1.15;;
46008;SDS011;39597;51.438;7.006;2022-10-12T08:44:43;5.72;;;1.67;;
46008;SDS011;39597;51.438;7.006;2022-10-12T08:47:18;4.18;;;1.63;;
46008;SDS011;39597;51.438;7.006;2022-10-12T08:49:50;3.60;;;1.20;;
46008;SDS011;39597;51.438;7.006;2022-10-12T08:52:27;3.55;;;1.27;;
46008;SDS011;39597;51.438;7.006;2022-10-12T08:55:03;8.48;;;1.63;;
46008;SDS011;39597;51.438;7.006;2022-10-12T08:57:40;7.93;;;1.65;;
46008;SDS011;39597;51.438;7.006;2022-10-12T09:00:11;5.63;;;1.83;;
46008;SDS011;39597;51.438;7.006;2022-10-12T09:05:32;5.85;;;1.50;;
46008;SDS011;39597;51.438;7.006;2022-10-12T09:08:18;3.72;;;1.52;;
46008;SDS011;39597;51.438;7.006;2022-10-12T09:10:45;4.80;;;1.88;;
46008;SDS011;39597;51.438;7.006;2022-10-12T09:13:21;5.85;;;1.38;;
46008;SDS011;39597;51.438;7.006;2022-10-12T09:16:32;6.18;;;2.47;;
46008;SDS011;39597;51.438;7.006;2022-10-12T09:18:54;9.63;;;3.13;;
46008;SDS011;39597;51.438;7.006;2022-10-12T09:21:22;4.70;;;1.55;;
46008;SDS011;39597;51.438;7.006;2022-10-12T09:23:53;3.72;;;1.38;;
46008;SDS011;39597;51.438;7.006;2022-10-12T09:26:25;5.43;;;1.33;;
46008;SDS011;39597;51.438;7.006;2022-10-12T09:28:59;3.20;;;1.10;;
46008;SDS011;39597;51.438;7.006;2022-10-12T09:31:44;3.47;;;1.33;;
46008;SDS011;39597;51.438;7.006;2022-10-12T09:34:23;4.15;;;1.48;;
46008;SDS011;39597;51.438;7.006;2022-10-12T09:36:49;3.38;;;1.15;;
46008;SDS011;39597;51.438;7.006;2022-10-12T09:39:18;4.35;;;1.27;;
46008;SDS011;39597;51.438;7.006;2022-10-12T09:41:46;4.25;;;1.45;;
46008;SDS011;39597;51.438;7.006;2022-10-12T09:46:57;4.15;;;1.25;;
46008;SDS011;39597;51.438;7.006;2022-10-12T09:49:44;6.22;;;1.35;;
46008;SDS011;39597;51.438;7.006;2022-10-12T09:52:12;4.35;;;1.40;;
46008;SDS011;39597;51.438;7.006;2022-10-12T09:54:39;3.22;;;1.08;;
46008;SDS011;39597;51.438;7.006;2022-10-12T09:57:17;2.95;;;0.80;;
46008;SDS011;39597;51.438;7.006;2022-10-12T10:00:02;5.13;;;1.10;;
46008;SDS011;39597;51.438;7.006;2022-10-12T10:02:48;4.05;;;0.93;;
46008;SDS011;39597;51.438;7.006;2022-10-12T10:05:48;3.80;;;1.25;;
46008;SDS011;39597;51.438;7.006;2022-10-12T10:10:46;2.33;;;0.73;;
46008;SDS011;39597;51.438;7.006;2022-10-12T10:13:15;3.92;;;0.95;;
46008;SDS011;39597;51.438;7.006;2022-10-12T10:15:41;3.47;;;0.70;;
46008;SDS011;39597;51.438;7.006;2022-10-12T10:20:57;3.25;;;0.90;;
46008;SDS011;39597;51.438;7.006;2022-10-12T10:23:24;6.65;;;1.10;;
46008;SDS011;39597;51.438;7.006;2022-10-12T10:25:57;3.75;;;0.93;;
46008;SDS011;39597;51.438;7.006;2022-10-12T10:28:29;7.07;;;1.70;;
46008;SDS011;39597;51.438;7.006;2022-10-12T10:31:00;2.97;;;0.80;;
46008;SDS011;39597;51.438;7.006;2022-10-12T10:33:34;5.53;;;1.58;;
46008;SDS011;39597;51.438;7.006;2022-10-12T10:36:02;2.95;;;0.82;;
46008;SDS011;39597;51.438;7.006;2022-10-12T10:39:16;5.03;;;0.90;;
46008;SDS011;39597;51.438;7.006;2022-10-12T10:41:25;3.88;;;1.15;;
46008;SDS011;39597;51.438;7.006;2022-10-12T10:43:53;4.85;;;0.93;;
46008;SDS011;39597;51.438;7.006;2022-10-12T10:46:23;8.48;;;1.92;;
46008;SDS011;39597;51.438;7.006;2022-10-12T10:48:57;4.85;;;1.10;;
46008;SDS011;39597;51.438;7.006;2022-10-12T10:56:48;4.10;;;1.17;;
46008;SDS011;39597;51.438;7.006;2022-10-12T10:59:19;3.97;;;0.93;;
46008;SDS011;39597;51.438;7.006;2022-10-12T11:01:53;3.60;;;1.25;;
46008;SDS011;39597;51.438;7.006;2022-10-12T11:04:40;3.83;;;1.00;;
46008;SDS011;39597;51.438;7.006;2022-10-12T11:07:16;6.13;;;1.17;;
46008;SDS011;39597;51.438;7.006;2022-10-12T11:09:55;3.85;;;0.85;;
46008;SDS011;39597;51.438;7.006;2022-10-12T11:12:28;6.15;;;1.05;;
46008;SDS011;39597;51.438;7.006;2022-10-12T11:15:05;3.40;;;1.20;;
46008;SDS011;39597;51.438;7.006;2022-10-12T11:17:43;1.77;;;0.82;;
46008;SDS011;39597;51.438;7.006;2022-10-12T11:23:01;3.97;;;0.73;;
46008;SDS011;39597;51.438;7.006;2022-10-12T11:25:49;6.90;;;1.55;;
46008;SDS011;39597;51.438;7.006;2022-10-12T11:28:25;2.83;;;0.80;;
46008;SDS011;39597;51.438;7.006;2022-10-12T11:30:55;3.03;;;0.90;;
46008;SDS011;39597;51.438;7.006;2022-10-12T11:35:48;4.65;;;1.23;;
46008;SDS011;39597;51.438;7.006;2022-10-12T11:38:18;3.58;;;1.20;;
46008;SDS011;39597;51.438;7.006;2022-10-12T11:40:50;3.85;;;1.02;;
46008;SDS011;39597;51.438;7.006;2022-10-12T11:43:20;7.60;;;1.85;;
46008;SDS011;39597;51.438;7.006;2022-10-12T11:45:49;2.80;;;1.00;;
46008;SDS011;39597;51.438;7.006;2022-10-12T11:48:21;3.35;;;1.10;;
46008;SDS011;39597;51.438;7.006;2022-10-12T11:50:51;3.10;;;0.90;;
46008;SDS011;39597;51.438;7.006;2022-10-12T11:53:34;4.95;;;1.50;;
46008;SDS011;39597;51.438;7.006;2022-10-12T11:58:57;5.55;;;1.27;;
46008;SDS011;39597;51.438;7.006;2022-10-12T12:06:49;3.17;;;0.70;;
46008;SDS011;39597;51.438;7.006;2022-10-12T12:12:11;6.03;;;1.20;;
46008;SDS011;39597;51.438;7.006;2022-10-12T12:17:21;4.93;;;1.23;;
46008;SDS011;39597;51.438;7.006;2022-10-12T12:19:52;4.65;;;1.00;;
46008;SDS011;39597;51.438;7.006;2022-10-12T12:25:22;4.28;;;1.10;;
46008;SDS011;39597;51.438;7.006;2022-10-12T12:27:55;3.70;;;1.15;;
46008;SDS011;39597;51.438;7.006;2022-10-12T12:32:56;3.58;;;1.02;;
46008;SDS011;39597;51.438;7.006;2022-10-12T12:35:32;5.55;;;1.17;;
46008;SDS011;39597;51.438;7.006;2022-10-12T12:38:18;4.05;;;1.20;;
46008;SDS011;39597;51.438;7.006;2022-10-12T12:41:23;4.68;;;1.30;;
46008;SDS011;39597;51.438;7.006;2022-10-12T12:46:13;7.03;;;1.77;;
46008;SDS011;39597;51.438;7.006;2022-10-12T12:51:10;5.43;;;1.00;;
46008;SDS011;39597;51.438;7.006;2022-10-12T12:53:48;3.10;;;0.90;;
46008;SDS011;39597;51.438;7.006;2022-10-12T13:10:59;5.45;;;1.40;;
46008;SDS011;39597;51.438;7.006;2022-10-12T13:16:27;4.15;;;1.38;;
46008;SDS011;39597;51.438;7.006;2022-10-12T13:18:59;5.95;;;1.15;;
46008;SDS011;39597;51.438;7.006;2022-10-12T13:21:37;4.05;;;1.48;;
46008;SDS011;39597;51.438;7.006;2022-10-12T13:24:11;5.80;;;1.70;;
46008;SDS011;39597;51.438;7.006;2022-10-12T13:26:39;5.32;;;1.33;;
46008;SDS011;39597;51.438;7.006;2022-10-12T13:29:14;3.45;;;1.10;;
46008;SDS011;39597;51.438;7.006;2022-10-12T13:31:43;6.30;;;1.23;;
46008;SDS011;39597;51.438;7.006;2022-10-12T13:34:14;6.40;;;1.80;;
46008;SDS011;39597;51.438;7.006;2022-10-12T13:37:08;4.25;;;1.38;;
46008;SDS011;39597;51.438;7.006;2022-10-12T13:39:37;6.00;;;1.38;;
46008;SDS011;39597;51.438;7.006;2022-10-12T13:42:04;3.22;;;1.20;;
46008;SDS011;39597;51.438;7.006;2022-10-12T13:44:31;4.57;;;1.25;;
46008;SDS011;39597;51.438;7.006;2022-10-12T13:46:59;4.68;;;1.52;;
46008;SDS011;39597;51.438;7.006;2022-10-12T13:51:57;3.60;;;1.35;;
46008;SDS011;39597;51.438;7.006;2022-10-12T13:54:47;4.82;;;1.27;;
46008;SDS011;39597;51.438;7.006;2022-10-12T13:59:42;4.15;;;1.35;;
46008;SDS011;39597;51.438;7.006;2022-10-12T14:02:22;4.97;;;1.25;;
46008;SDS011;39597;51.438;7.006;2022-10-12T14:04:55;5.05;;;1.50;;
46008;SDS011;39597;51.438;7.006;2022-10-12T14:07:23;7.55;;;2.33;;
46008;SDS011;39597;51.438;7.006;2022-10-12T14:09:54;4.20;;;1.80;;
46008;SDS011;39597;51.438;7.006;2022-10-12T14:12:23;4.43;;;1.80;;
46008;SDS011;39597;51.438;7.006;2022-10-12T14:14:49;4.78;;;1.67;;
46008;SDS011;39597;51.438;7.006;2022-10-12T14:17:16;5.50;;;2.20;;
46008;SDS011;39597;51.438;7.006;2022-10-12T14:19:47;4.40;;;2.25;;
46008;SDS011;39597;51.438;7.006;2022-10-12T14:22:28;5.85;;;1.83;;
46008;SDS011;39597;51.438;7.006;2022-10-12T14:27:39;6.38;;;2.08;;
46008;SDS011;39597;51.438;7.006;2022-10-12T14:30:50;5.88;;;2.10;;
46008;SDS011;39597;51.438;7.006;2022-10-12T14:35:40;6.47;;;1.48;;
46008;SDS011;39597;51.438;7.006;2022-10-12T14:40:55;5.82;;;1.85;;
46008;SDS011;39597;51.438;7.006;2022-10-12T14:43:22;7.30;;;1.80;;
46008;SDS011;39597;51.438;7.006;2022-10-12T14:45:49;5.25;;;1.67;;
46008;SDS011;39597;51.438;7.006;2022-10-12T14:48:18;4.15;;;1.65;;
46008;SDS011;39597;51.438;7.006;2022-10-12T14:50:47;6.18;;;1.55;;
46008;SDS011;39597;51.438;7.006;2022-10-12T14:53:14;6.93;;;2.67;;
46008;SDS011;39597;51.438;7.006;2022-10-12T14:55:40;4.75;;;2.13;;
46008;SDS011;39597;51.438;7.006;2022-10-12T14:58:06;6.03;;;2.05;;
46008;SDS011;39597;51.438;7.006;2022-10-12T15:00:38;5.22;;;1.77;;
46008;SDS011;39597;51.438;7.006;2022-10-12T15:03:03;7.45;;;2.10;;
46008;SDS011;39597;51.438;7.006;2022-10-12T15:05:30;5.13;;;1.83;;
46008;SDS011;39597;51.438;7.006;2022-10-12T15:07:56;6.75;;;1.90;;
46008;SDS011;39597;51.438;7.006;2022-10-12T15:10:22;6.13;;;1.42;;
46008;SDS011;39597;51.438;7.006;2022-10-12T15:12:49;8.38;;;2.20;;
46008;SDS011;39597;51.438;7.006;2022-10-12T15:17:43;5.30;;;1.65;;
46008;SDS011;39597;51.438;7.006;2022-10-12T15:20:09;5.90;;;2.07;;
46008;SDS011;39597;51.438;7.006;2022-10-12T15:25:00;6.00;;;1.77;;
46008;SDS011;39597;51.438;7.006;2022-10-12T15:29:50;4.77;;;1.73;;
46008;SDS011;39597;51.438;7.006;2022-10-12T15:32:16;5.95;;;1.80;;
46008;SDS011;39597;51.438;7.006;2022-10-12T15:34:43;6.05;;;2.42;;
46008;SDS011;39597;51.438;7.006;2022-10-12T15:37:09;5.47;;;1.98;;
46008;SDS011;39597;51.438;7.006;2022-10-12T15:39:34;5.22;;;2.00;;
46008;SDS011;39597;51.438;7.006;2022-10-12T15:42:00;5.95;;;2.33;;
46008;SDS011;39597;51.438;7.006;2022-10-12T15:44:26;6.87;;;1.90;;
46008;SDS011;39597;51.438;7.006;2022-10-12T15:46:51;4.28;;;1.88;;
46008;SDS011;39597;51.438;7.006;2022-10-12T15:51:45;7.10;;;2.72;;
46008;SDS011;39597;51.438;7.006;2022-10-12T15:54:12;5.85;;;2.00;;
46008;SDS011;39597;51.438;7.006;2022-10-12T15:59:03;5.80;;;2.72;;
46008;SDS011;39597;51.438;7.006;2022-10-12T16:01:29;5.47;;;1.90;;
46008;SDS011;39597;51.438;7.006;2022-10-12T16:03:56;4.70;;;1.80;;
46008;SDS011;39597;51.438;7.006;2022-10-12T16:06:22;5.32;;;2.20;;
46008;SDS011;39597;51.438;7.006;2022-10-12T16:08:50;7.43;;;2.22;;
46008;SDS011;39597;51.438;7.006;2022-10-12T16:11:16;6.80;;;1.70;;
46008;SDS011;39597;51.438;7.006;2022-10-12T16:13:42;6.43;;;2.40;;
46008;SDS011;39597;51.438;7.006;2022-10-12T16:16:10;7.18;;;2.90;;
46008;SDS011;39597;51.438;7.006;2022-10-12T16:18:36;7.68;;;2.58;;
46008;SDS011;39597;51.438;7.006;2022-10-12T16:21:02;6.65;;;2.28;;
46008;SDS011;39597;51.438;7.006;2022-10-12T16:23:29;5.75;;;2.60;;
46008;SDS011;39597;51.438;7.006;2022-10-12T16:25:56;7.50;;;2.75;;
46008;SDS011;39597;51.438;7.006;2022-10-12T16:31:07;8.70;;;2.75;;
46008;SDS011;39597;51.438;7.006;2022-10-12T16:33:43;8.32;;;2.30;;
46008;SDS011;39597;51.438;7.006;2022-10-12T16:36:13;7.40;;;2.65;;
46008;SDS011;39597;51.438;7.006;2022-10-12T16:38:42;5.35;;;2.45;;
46008;SDS011;39597;51.438;7.006;2022-10-12T16:41:13;11.50;;;2.45;;
46008;SDS011;39597;51.438;7.006;2022-10-12T16:43:40;8.52;;;2.58;;
46008;SDS011;39597;51.438;7.006;2022-10-12T16:46:05;7.03;;;2.53;;
46008;SDS011;39597;51.438;7.006;2022-10-12T16:48:31;7.85;;;2.60;;
46008;SDS011;39597;51.438;7.006;2022-10-12T16:51:11;5.63;;;1.95;;
46008;SDS011;39597;51.438;7.006;2022-10-12T16:53:37;5.80;;;2.28;;
46008;SDS011;39597;51.438;7.006;2022-10-12T16:56:06;5.53;;;2.20;;
46008;SDS011;39597;51.438;7.006;2022-10-12T16:58:32;9.32;;;2.65;;
46008;SDS011;39597;51.438;7.006;2022-10-12T17:00:57;7.47;;;2.58;;
46008;SDS011;39597;51.438;7.006;2022-10-12T17:03:23;7.50;;;2.45;;
46008;SDS011;39597;51.438;7.006;2022-10-12T17:05:55;9.52;;;3.00;;
46008;SDS011;39597;51.438;7.006;2022-10-12T17:08:22;5.43;;;2.08;;